sensor_id;sensor_type;location;lat;lon;timestamp;P1;durP1;ratioP1;P2;durP2;ratioP2
18280;SDS011;9266;51.132;17.062;2022-12-07T06:01:16;18.33;;;12.57;;
18280;SDS011;9266;51.132;17.062;2022-12-07T06:03:44;22.30;;;14.83;;
18280;SDS011;9266;51.132;17.062;2022-12-07T06:06:12;22.77;;;14.90;;
18280;SDS011;9266;51.132;17.062;2022-12-07T06:08:40;22.87;;;15.97;;
18280;SDS011;9266;51.132;17.062;2022-12-07T06:11:07;22.93;;;13.97;;
18280;SDS011;9266;51.132;17.062;2022-12-07T06:13:52;20.00;;;13.57;;
18280;SDS011;9266;51.132;17.062;2022-12-07T06:16:21;24.53;;;14.50;;
18280;SDS011;9266;51.132;17.062;2022-12-07T06:18:52;24.10;;;15.07;;
18280;SDS011;9266;51.132;17.062;2022-12-07T06:21:20;24.70;;;16.13;;
18280;SDS011;9266;51.132;17.062;2022-12-07T06:23:48;27.17;;;16.20;;
18280;SDS011;9266;51.132;17.062;2022-12-07T06:26:15;27.53;;;16.27;;
18280;SDS011;9266;51.132;17.062;2022-12-07T06:28:43;23.47;;;15.57;;
18280;SDS011;9266;51.132;17.062;2022-12-07T06:31:10;22.90;;;15.33;;
18280;SDS011;9266;51.132;17.062;2022-12-07T06:33:39;23.53;;;15.70;;
18280;SDS011;9266;51.132;17.062;2022-12-07T06:36:08;25.47;;;16.43;;
18280;SDS011;9266;51.132;17.062;2022-12-07T06:38:39;26.97;;;16.47;;
18280;SDS011;9266;51.132;17.062;2022-12-07T06:41:07;25.47;;;16.77;;
18280;SDS011;9266;51.132;17.062;2022-12-07T06:43:35;26.07;;;16.43;;
18280;SDS011;9266;51.132;17.062;2022-12-07T06:46:03;24.47;;;16.40;;
18280;SDS011;9266;51.132;17.062;2022-12-07T06:48:31;24.87;;;15.80;;
18280;SDS011;9266;51.132;17.062;2022-12-07T06:51:00;23.50;;;15.83;;
18280;SDS011;9266;51.132;17.062;2022-12-07T06:53:34;26.70;;;18.10;;
18280;SDS011;9266;51.132;17.062;2022-12-07T06:56:02;24.47;;;16.37;;
18280;SDS011;9266;51.132;17.062;2022-12-07T06:58:29;26.37;;;16.17;;
18280;SDS011;9266;51.132;17.062;2022-12-07T07:00:57;23.83;;;15.37;;
18280;SDS011;9266;51.132;17.062;2022-12-07T07:05:55;21.57;;;15.23;;
18280;SDS011;9266;51.132;17.062;2022-12-07T07:08:23;27.53;;;16.00;;
18280;SDS011;9266;51.132;17.062;2022-12-07T07:10:51;22.73;;;14.40;;
18280;SDS011;9266;51.132;17.062;2022-12-07T07:13:18;26.27;;;16.37;;
18280;SDS011;9266;51.132;17.062;2022-12-07T07:15:45;21.90;;;14.77;;
18280;SDS011;9266;51.132;17.062;2022-12-07T07:18:13;23.67;;;15.83;;
18280;SDS011;9266;51.132;17.062;2022-12-07T07:20:40;20.93;;;14.67;;
18280;SDS011;9266;51.132;17.062;2022-12-07T07:23:08;21.17;;;13.97;;
18280;SDS011;9266;51.132;17.062;2022-12-07T07:25:38;22.60;;;15.00;;
18280;SDS011;9266;51.132;17.062;2022-12-07T07:28:08;20.77;;;13.33;;
18280;SDS011;9266;51.132;17.062;2022-12-07T07:30:36;21.37;;;14.70;;
18280;SDS011;9266;51.132;17.062;2022-12-07T07:33:05;22.53;;;14.40;;
18280;SDS011;9266;51.132;17.062;2022-12-07T07:35:33;21.20;;;13.67;;
18280;SDS011;9266;51.132;17.062;2022-12-07T07:38:01;20.23;;;12.93;;
18280;SDS011;9266;51.132;17.062;2022-12-07T07:40:33;20.93;;;13.00;;
18280;SDS011;9266;51.132;17.062;2022-12-07T07:43:03;22.23;;;14.07;;
18280;SDS011;9266;51.132;17.062;2022-12-07T07:45:31;20.37;;;12.57;;
18280;SDS011;9266;51.132;17.062;2022-12-07T07:47:59;21.47;;;14.37;;
18280;SDS011;9266;51.132;17.062;2022-12-07T07:50:26;18.73;;;13.03;;
18280;SDS011;9266;51.132;17.062;2022-12-07T07:52:54;18.97;;;13.40;;
18280;SDS011;9266;51.132;17.062;2022-12-07T07:55:21;20.37;;;13.60;;
18280;SDS011;9266;51.132;17.062;2022-12-07T07:57:49;20.47;;;13.47;;
18280;SDS011;9266;51.132;17.062;2022-12-07T08:00:18;20.10;;;12.57;;
18280;SDS011;9266;51.132;17.062;2022-12-07T08:02:46;20.20;;;13.07;;
18280;SDS011;9266;51.132;17.062;2022-12-07T08:05:13;17.87;;;12.87;;
18280;SDS011;9266;51.132;17.062;2022-12-07T08:07:41;20.83;;;13.90;;
18280;SDS011;9266;51.132;17.062;2022-12-07T08:10:12;15.80;;;11.80;;
18280;SDS011;9266;51.132;17.062;2022-12-07T08:12:40;17.87;;;12.37;;
18280;SDS011;9266;51.132;17.062;2022-12-07T08:15:23;19.87;;;13.00;;
18280;SDS011;9266;51.132;17.062;2022-12-07T08:17:50;17.93;;;12.03;;
18280;SDS011;9266;51.132;17.062;2022-12-07T08:20:18;18.30;;;12.97;;
18280;SDS011;9266;51.132;17.062;2022-12-07T08:22:46;21.97;;;12.80;;
18280;SDS011;9266;51.132;17.062;2022-12-07T08:25:13;17.03;;;12.20;;
18280;SDS011;9266;51.132;17.062;2022-12-07T08:27:41;20.70;;;12.77;;
18280;SDS011;9266;51.132;17.062;2022-12-07T08:30:09;23.07;;;14.07;;
18280;SDS011;9266;51.132;17.062;2022-12-07T08:32:40;17.33;;;12.50;;
18280;SDS011;9266;51.132;17.062;2022-12-07T08:35:09;24.17;;;15.47;;
18280;SDS011;9266;51.132;17.062;2022-12-07T08:37:36;18.87;;;13.10;;
18280;SDS011;9266;51.132;17.062;2022-12-07T08:40:05;19.10;;;12.73;;
18280;SDS011;9266;51.132;17.062;2022-12-07T08:42:33;17.57;;;12.80;;
18280;SDS011;9266;51.132;17.062;2022-12-07T08:45:05;15.63;;;11.73;;
18280;SDS011;9266;51.132;17.062;2022-12-07T08:47:33;16.60;;;11.70;;
18280;SDS011;9266;51.132;17.062;2022-12-07T08:50:04;15.97;;;11.30;;
18280;SDS011;9266;51.132;17.062;2022-12-07T08:52:33;18.83;;;12.37;;
18280;SDS011;9266;51.132;17.062;2022-12-07T08:55:01;18.40;;;11.80;;
18280;SDS011;9266;51.132;17.062;2022-12-07T08:57:29;16.37;;;11.83;;
18280;SDS011;9266;51.132;17.062;2022-12-07T08:59:58;14.73;;;11.00;;
18280;SDS011;9266;51.132;17.062;2022-12-07T09:02:26;14.63;;;11.17;;
18280;SDS011;9266;51.132;17.062;2022-12-07T09:04:54;16.70;;;10.87;;
18280;SDS011;9266;51.132;17.062;2022-12-07T09:07:23;16.57;;;11.63;;
18280;SDS011;9266;51.132;17.062;2022-12-07T09:09:55;15.70;;;11.33;;
18280;SDS011;9266;51.132;17.062;2022-12-07T09:12:23;13.93;;;10.67;;
18280;SDS011;9266;51.132;17.062;2022-12-07T09:14:51;14.07;;;11.27;;
18280;SDS011;9266;51.132;17.062;2022-12-07T09:17:18;14.67;;;11.13;;
18280;SDS011;9266;51.132;17.062;2022-12-07T09:19:46;13.00;;;9.93;;
18280;SDS011;9266;51.132;17.062;2022-12-07T09:22:14;14.47;;;10.10;;
18280;SDS011;9266;51.132;17.062;2022-12-07T09:24:43;15.50;;;10.40;;
18280;SDS011;9266;51.132;17.062;2022-12-07T09:27:11;13.97;;;10.80;;
18280;SDS011;9266;51.132;17.062;2022-12-07T09:29:38;16.03;;;11.37;;
18280;SDS011;9266;51.132;17.062;2022-12-07T09:32:05;16.50;;;10.20;;
18280;SDS011;9266;51.132;17.062;2022-12-07T09:34:33;13.17;;;9.63;;
18280;SDS011;9266;51.132;17.062;2022-12-07T09:37:00;13.30;;;9.63;;
18280;SDS011;9266;51.132;17.062;2022-12-07T09:39:29;13.10;;;9.70;;
18280;SDS011;9266;51.132;17.062;2022-12-07T09:41:58;14.00;;;9.50;;
18280;SDS011;9266;51.132;17.062;2022-12-07T09:44:26;14.47;;;9.23;;
18280;SDS011;9266;51.132;17.062;2022-12-07T09:46:54;11.77;;;9.57;;
18280;SDS011;9266;51.132;17.062;2022-12-07T09:49:23;12.13;;;9.07;;
18280;SDS011;9266;51.132;17.062;2022-12-07T09:51:59;13.30;;;8.87;;
18280;SDS011;9266;51.132;17.062;2022-12-07T09:54:27;12.27;;;8.30;;
18280;SDS011;9266;51.132;17.062;2022-12-07T09:56:56;10.90;;;8.00;;
18280;SDS011;9266;51.132;17.062;2022-12-07T09:59:38;10.60;;;8.57;;
18280;SDS011;9266;51.132;17.062;2022-12-07T10:02:19;14.50;;;10.03;;
18280;SDS011;9266;51.132;17.062;2022-12-07T10:04:49;9.67;;;7.33;;
18280;SDS011;9266;51.132;17.062;2022-12-07T10:07:16;12.13;;;8.23;;
18280;SDS011;9266;51.132;17.062;2022-12-07T10:09:44;9.67;;;7.87;;
18280;SDS011;9266;51.132;17.062;2022-12-07T10:12:11;10.57;;;7.33;;
18280;SDS011;9266;51.132;17.062;2022-12-07T10:14:52;10.80;;;6.70;;
18280;SDS011;9266;51.132;17.062;2022-12-07T10:17:31;12.10;;;7.90;;
18280;SDS011;9266;51.132;17.062;2022-12-07T10:20:11;10.53;;;7.60;;
18280;SDS011;9266;51.132;17.062;2022-12-07T10:22:48;10.73;;;7.57;;
18280;SDS011;9266;51.132;17.062;2022-12-07T10:25:21;11.53;;;8.27;;
18280;SDS011;9266;51.132;17.062;2022-12-07T10:27:56;11.23;;;7.03;;
18280;SDS011;9266;51.132;17.062;2022-12-07T10:30:26;10.00;;;6.73;;
18280;SDS011;9266;51.132;17.062;2022-12-07T10:32:53;9.17;;;6.83;;
18280;SDS011;9266;51.132;17.062;2022-12-07T10:35:22;12.90;;;8.20;;
18280;SDS011;9266;51.132;17.062;2022-12-07T10:37:50;12.80;;;8.30;;
18280;SDS011;9266;51.132;17.062;2022-12-07T10:40:28;9.83;;;6.13;;
18280;SDS011;9266;51.132;17.062;2022-12-07T10:43:03;9.93;;;7.10;;
18280;SDS011;9266;51.132;17.062;2022-12-07T10:45:32;7.27;;;5.30;;
18280;SDS011;9266;51.132;17.062;2022-12-07T10:48:01;6.60;;;5.30;;
18280;SDS011;9266;51.132;17.062;2022-12-07T10:53:38;9.60;;;6.87;;
18280;SDS011;9266;51.132;17.062;2022-12-07T10:59:00;7.47;;;5.70;;
18280;SDS011;9266;51.132;17.062;2022-12-07T11:01:31;7.93;;;6.10;;
18280;SDS011;9266;51.132;17.062;2022-12-07T11:04:03;8.13;;;6.17;;
18280;SDS011;9266;51.132;17.062;2022-12-07T11:06:35;6.83;;;6.07;;
18280;SDS011;9266;51.132;17.062;2022-12-07T11:12:09;9.70;;;6.73;;
18280;SDS011;9266;51.132;17.062;2022-12-07T11:14:41;10.33;;;6.00;;
18280;SDS011;9266;51.132;17.062;2022-12-07T11:17:14;8.73;;;6.80;;
18280;SDS011;9266;51.132;17.062;2022-12-07T11:19:49;10.27;;;7.07;;
18280;SDS011;9266;51.132;17.062;2022-12-07T11:22:20;9.43;;;7.10;;
18280;SDS011;9266;51.132;17.062;2022-12-07T11:24:52;10.30;;;7.00;;
18280;SDS011;9266;51.132;17.062;2022-12-07T11:27:23;13.30;;;7.50;;
18280;SDS011;9266;51.132;17.062;2022-12-07T11:30:06;10.33;;;7.70;;
18280;SDS011;9266;51.132;17.062;2022-12-07T11:32:47;10.63;;;7.57;;
18280;SDS011;9266;51.132;17.062;2022-12-07T11:35:18;10.77;;;6.90;;
18280;SDS011;9266;51.132;17.062;2022-12-07T11:37:49;14.47;;;7.63;;
18280;SDS011;9266;51.132;17.062;2022-12-07T11:40:18;7.13;;;6.43;;
18280;SDS011;9266;51.132;17.062;2022-12-07T11:42:50;6.33;;;5.30;;
18280;SDS011;9266;51.132;17.062;2022-12-07T11:45:19;8.83;;;6.43;;
18280;SDS011;9266;51.132;17.062;2022-12-07T11:47:52;7.43;;;5.90;;
18280;SDS011;9266;51.132;17.062;2022-12-07T11:50:23;7.17;;;5.70;;
18280;SDS011;9266;51.132;17.062;2022-12-07T11:52:53;6.93;;;5.70;;
18280;SDS011;9266;51.132;17.062;2022-12-07T11:55:24;7.60;;;5.23;;
18280;SDS011;9266;51.132;17.062;2022-12-07T11:57:54;6.27;;;5.40;;
18280;SDS011;9266;51.132;17.062;2022-12-07T12:00:25;6.97;;;5.63;;
18280;SDS011;9266;51.132;17.062;2022-12-07T12:02:55;7.03;;;5.50;;
18280;SDS011;9266;51.132;17.062;2022-12-07T12:05:25;6.77;;;5.40;;
18280;SDS011;9266;51.132;17.062;2022-12-07T12:07:54;8.90;;;5.70;;
18280;SDS011;9266;51.132;17.062;2022-12-07T12:10:26;9.20;;;5.80;;
18280;SDS011;9266;51.132;17.062;2022-12-07T12:13:10;6.23;;;5.37;;
18280;SDS011;9266;51.132;17.062;2022-12-07T12:15:47;7.80;;;6.03;;
18280;SDS011;9266;51.132;17.062;2022-12-07T12:21:06;7.07;;;6.03;;
18280;SDS011;9266;51.132;17.062;2022-12-07T12:23:36;6.53;;;5.90;;
18280;SDS011;9266;51.132;17.062;2022-12-07T12:26:07;10.87;;;8.77;;
18280;SDS011;9266;51.132;17.062;2022-12-07T12:28:35;8.03;;;6.03;;
18280;SDS011;9266;51.132;17.062;2022-12-07T12:31:06;7.00;;;5.60;;
18280;SDS011;9266;51.132;17.062;2022-12-07T12:33:34;6.77;;;5.53;;
18280;SDS011;9266;51.132;17.062;2022-12-07T12:36:24;9.47;;;7.20;;
18280;SDS011;9266;51.132;17.062;2022-12-07T12:39:07;7.60;;;6.03;;
18280;SDS011;9266;51.132;17.062;2022-12-07T12:41:51;7.73;;;6.00;;
18280;SDS011;9266;51.132;17.062;2022-12-07T12:53:05;11.67;;;8.57;;
18280;SDS011;9266;51.132;17.062;2022-12-07T12:58:27;7.10;;;5.73;;
18280;SDS011;9266;51.132;17.062;2022-12-07T13:03:50;7.57;;;5.40;;
18280;SDS011;9266;51.132;17.062;2022-12-07T13:06:20;8.07;;;5.70;;
18280;SDS011;9266;51.132;17.062;2022-12-07T13:09:02;7.70;;;5.90;;
18280;SDS011;9266;51.132;17.062;2022-12-07T13:11:31;9.83;;;6.17;;
18280;SDS011;9266;51.132;17.062;2022-12-07T13:16:50;6.67;;;5.97;;
18280;SDS011;9266;51.132;17.062;2022-12-07T13:22:03;7.10;;;6.10;;
18280;SDS011;9266;51.132;17.062;2022-12-07T13:27:18;7.67;;;6.47;;
18280;SDS011;9266;51.132;17.062;2022-12-07T13:29:46;8.03;;;6.37;;
18280;SDS011;9266;51.132;17.062;2022-12-07T13:32:17;9.07;;;6.40;;
18280;SDS011;9266;51.132;17.062;2022-12-07T13:34:49;7.47;;;6.10;;
18280;SDS011;9266;51.132;17.062;2022-12-07T13:37:18;8.87;;;6.57;;
18280;SDS011;9266;51.132;17.062;2022-12-07T13:39:49;9.47;;;8.37;;
18280;SDS011;9266;51.132;17.062;2022-12-07T13:42:22;8.20;;;6.80;;
18280;SDS011;9266;51.132;17.062;2022-12-07T13:44:51;8.90;;;6.80;;
18280;SDS011;9266;51.132;17.062;2022-12-07T13:47:20;8.60;;;7.63;;
18280;SDS011;9266;51.132;17.062;2022-12-07T13:49:50;8.27;;;6.80;;
18280;SDS011;9266;51.132;17.062;2022-12-07T13:52:18;9.77;;;7.30;;
18280;SDS011;9266;51.132;17.062;2022-12-07T13:54:47;10.17;;;7.03;;
18280;SDS011;9266;51.132;17.062;2022-12-07T13:57:15;10.73;;;8.03;;
18280;SDS011;9266;51.132;17.062;2022-12-07T13:59:44;8.47;;;7.50;;
18280;SDS011;9266;51.132;17.062;2022-12-07T14:02:17;8.07;;;6.83;;
18280;SDS011;9266;51.132;17.062;2022-12-07T14:04:45;10.53;;;7.20;;
18280;SDS011;9266;51.132;17.062;2022-12-07T14:07:19;7.40;;;6.70;;
18280;SDS011;9266;51.132;17.062;2022-12-07T14:09:53;8.43;;;7.30;;
18280;SDS011;9266;51.132;17.062;2022-12-07T14:12:21;9.40;;;6.90;;
18280;SDS011;9266;51.132;17.062;2022-12-07T14:14:50;9.77;;;7.27;;
18280;SDS011;9266;51.132;17.062;2022-12-07T14:17:18;10.70;;;6.90;;
18280;SDS011;9266;51.132;17.062;2022-12-07T14:19:48;9.07;;;6.73;;
18280;SDS011;9266;51.132;17.062;2022-12-07T14:22:23;8.13;;;6.50;;
18280;SDS011;9266;51.132;17.062;2022-12-07T14:24:58;9.70;;;7.63;;
18280;SDS011;9266;51.132;17.062;2022-12-07T14:27:29;9.13;;;7.03;;
18280;SDS011;9266;51.132;17.062;2022-12-07T14:30:00;8.93;;;7.20;;
18280;SDS011;9266;51.132;17.062;2022-12-07T14:32:28;10.17;;;7.67;;
18280;SDS011;9266;51.132;17.062;2022-12-07T14:34:56;15.00;;;10.40;;
18280;SDS011;9266;51.132;17.062;2022-12-07T14:37:25;10.60;;;7.40;;
18280;SDS011;9266;51.132;17.062;2022-12-07T14:39:52;8.23;;;6.90;;
18280;SDS011;9266;51.132;17.062;2022-12-07T14:42:20;8.53;;;6.30;;
18280;SDS011;9266;51.132;17.062;2022-12-07T14:44:47;7.67;;;6.53;;
18280;SDS011;9266;51.132;17.062;2022-12-07T14:47:16;7.00;;;6.30;;
18280;SDS011;9266;51.132;17.062;2022-12-07T14:49:44;8.20;;;6.50;;
18280;SDS011;9266;51.132;17.062;2022-12-07T14:52:13;7.50;;;6.70;;
18280;SDS011;9266;51.132;17.062;2022-12-07T14:54:41;6.90;;;6.23;;
18280;SDS011;9266;51.132;17.062;2022-12-07T14:57:09;9.90;;;7.57;;
18280;SDS011;9266;51.132;17.062;2022-12-07T14:59:37;11.77;;;6.90;;
18280;SDS011;9266;51.132;17.062;2022-12-07T15:02:05;10.13;;;6.70;;
18280;SDS011;9266;51.132;17.062;2022-12-07T15:04:37;8.57;;;7.60;;
18280;SDS011;9266;51.132;17.062;2022-12-07T15:07:05;9.33;;;6.70;;
18280;SDS011;9266;51.132;17.062;2022-12-07T15:09:32;8.73;;;7.07;;
18280;SDS011;9266;51.132;17.062;2022-12-07T15:12:01;8.07;;;6.80;;
18280;SDS011;9266;51.132;17.062;2022-12-07T15:14:28;11.03;;;6.53;;
18280;SDS011;9266;51.132;17.062;2022-12-07T15:16:56;7.27;;;6.30;;
18280;SDS011;9266;51.132;17.062;2022-12-07T15:19:23;8.93;;;7.07;;
18280;SDS011;9266;51.132;17.062;2022-12-07T15:21:53;7.70;;;6.83;;
18280;SDS011;9266;51.132;17.062;2022-12-07T15:24:21;6.83;;;5.87;;
18280;SDS011;9266;51.132;17.062;2022-12-07T15:26:49;8.97;;;6.47;;
18280;SDS011;9266;51.132;17.062;2022-12-07T15:29:17;9.97;;;7.37;;
18280;SDS011;9266;51.132;17.062;2022-12-07T15:31:44;11.13;;;7.27;;
18280;SDS011;9266;51.132;17.062;2022-12-07T15:34:12;8.83;;;7.40;;
18280;SDS011;9266;51.132;17.062;2022-12-07T15:36:39;10.13;;;7.33;;
18280;SDS011;9266;51.132;17.062;2022-12-07T15:39:08;9.37;;;7.23;;
18280;SDS011;9266;51.132;17.062;2022-12-07T15:41:36;14.60;;;8.13;;
18280;SDS011;9266;51.132;17.062;2022-12-07T15:44:04;9.23;;;7.43;;
18280;SDS011;9266;51.132;17.062;2022-12-07T15:46:49;10.10;;;7.17;;
18280;SDS011;9266;51.132;17.062;2022-12-07T15:49:17;13.43;;;8.70;;
18280;SDS011;9266;51.132;17.062;2022-12-07T15:51:45;9.77;;;7.80;;
18280;SDS011;9266;51.132;17.062;2022-12-07T15:54:16;8.27;;;7.33;;
18280;SDS011;9266;51.132;17.062;2022-12-07T15:56:44;12.37;;;7.80;;
18280;SDS011;9266;51.132;17.062;2022-12-07T15:59:12;12.17;;;8.47;;
18280;SDS011;9266;51.132;17.062;2022-12-07T16:01:40;12.47;;;8.50;;
18280;SDS011;9266;51.132;17.062;2022-12-07T16:04:07;12.27;;;9.03;;
18280;SDS011;9266;51.132;17.062;2022-12-07T16:06:34;12.37;;;8.97;;
18280;SDS011;9266;51.132;17.062;2022-12-07T16:09:02;11.27;;;8.57;;
18280;SDS011;9266;51.132;17.062;2022-12-07T16:11:31;13.43;;;8.33;;
18280;SDS011;9266;51.132;17.062;2022-12-07T16:13:58;10.60;;;7.93;;
18280;SDS011;9266;51.132;17.062;2022-12-07T16:16:27;11.60;;;8.23;;
18280;SDS011;9266;51.132;17.062;2022-12-07T16:18:55;10.67;;;8.10;;
18280;SDS011;9266;51.132;17.062;2022-12-07T16:21:22;12.03;;;8.50;;
18280;SDS011;9266;51.132;17.062;2022-12-07T16:23:50;12.90;;;7.77;;
18280;SDS011;9266;51.132;17.062;2022-12-07T16:26:18;13.73;;;9.27;;
18280;SDS011;9266;51.132;17.062;2022-12-07T16:28:49;13.77;;;8.87;;
18280;SDS011;9266;51.132;17.062;2022-12-07T16:31:18;12.37;;;8.80;;
18280;SDS011;9266;51.132;17.062;2022-12-07T16:33:46;12.63;;;8.00;;
18280;SDS011;9266;51.132;17.062;2022-12-07T16:36:16;24.80;;;13.07;;
18280;SDS011;9266;51.132;17.062;2022-12-07T16:38:47;14.53;;;9.47;;
18280;SDS011;9266;51.132;17.062;2022-12-07T16:41:14;18.60;;;11.00;;
18280;SDS011;9266;51.132;17.062;2022-12-07T16:43:43;16.10;;;10.40;;
18280;SDS011;9266;51.132;17.062;2022-12-07T16:46:12;11.50;;;8.37;;
18280;SDS011;9266;51.132;17.062;2022-12-07T16:48:41;14.47;;;9.47;;
18280;SDS011;9266;51.132;17.062;2022-12-07T16:51:11;13.67;;;10.10;;
18280;SDS011;9266;51.132;17.062;2022-12-07T16:53:39;14.27;;;9.47;;
18280;SDS011;9266;51.132;17.062;2022-12-07T16:56:09;13.83;;;10.60;;
18280;SDS011;9266;51.132;17.062;2022-12-07T16:58:37;21.50;;;12.03;;
18280;SDS011;9266;51.132;17.062;2022-12-07T17:01:09;12.57;;;9.03;;
18280;SDS011;9266;51.132;17.062;2022-12-07T17:06:29;17.13;;;10.20;;
18280;SDS011;9266;51.132;17.062;2022-12-07T17:08:58;15.57;;;9.43;;
18280;SDS011;9266;51.132;17.062;2022-12-07T17:11:27;11.73;;;9.10;;
18280;SDS011;9266;51.132;17.062;2022-12-07T17:13:56;15.40;;;10.00;;
18280;SDS011;9266;51.132;17.062;2022-12-07T17:16:41;13.60;;;10.00;;
18280;SDS011;9266;51.132;17.062;2022-12-07T17:19:14;16.03;;;9.30;;
18280;SDS011;9266;51.132;17.062;2022-12-07T17:21:44;13.23;;;9.50;;
18280;SDS011;9266;51.132;17.062;2022-12-07T17:24:12;12.53;;;9.50;;
18280;SDS011;9266;51.132;17.062;2022-12-07T17:26:46;13.13;;;9.40;;
18280;SDS011;9266;51.132;17.062;2022-12-07T17:29:14;16.70;;;9.00;;
18280;SDS011;9266;51.132;17.062;2022-12-07T17:31:42;12.23;;;9.57;;
18280;SDS011;9266;51.132;17.062;2022-12-07T17:34:10;13.93;;;9.87;;
18280;SDS011;9266;51.132;17.062;2022-12-07T17:36:38;13.83;;;10.00;;
18280;SDS011;9266;51.132;17.062;2022-12-07T17:39:07;14.53;;;9.70;;
18280;SDS011;9266;51.132;17.062;2022-12-07T17:41:35;15.53;;;10.37;;
18280;SDS011;9266;51.132;17.062;2022-12-07T17:44:21;14.10;;;9.30;;
18280;SDS011;9266;51.132;17.062;2022-12-07T17:46:49;14.63;;;9.67;;
18280;SDS011;9266;51.132;17.062;2022-12-07T17:49:19;14.17;;;10.63;;
18280;SDS011;9266;51.132;17.062;2022-12-07T17:51:47;14.97;;;11.33;;
18280;SDS011;9266;51.132;17.062;2022-12-07T17:54:34;11.73;;;9.20;;
18280;SDS011;9266;51.132;17.062;2022-12-07T17:57:02;14.47;;;10.10;;
18280;SDS011;9266;51.132;17.062;2022-12-07T17:59:29;13.10;;;9.37;;
18280;SDS011;9266;51.132;17.062;2022-12-07T18:01:57;18.53;;;10.80;;
18280;SDS011;9266;51.132;17.062;2022-12-07T18:04:24;16.47;;;9.90;;
18280;SDS011;9266;51.132;17.062;2022-12-07T18:06:58;14.20;;;9.53;;
18280;SDS011;9266;51.132;17.062;2022-12-07T18:09:25;17.00;;;10.00;;
18280;SDS011;9266;51.132;17.062;2022-12-07T18:11:54;13.27;;;9.80;;
18280;SDS011;9266;51.132;17.062;2022-12-07T18:14:23;16.80;;;10.40;;
18280;SDS011;9266;51.132;17.062;2022-12-07T18:19:21;13.60;;;10.23;;
18280;SDS011;9266;51.132;17.062;2022-12-07T18:21:49;16.73;;;10.23;;
18280;SDS011;9266;51.132;17.062;2022-12-07T18:24:17;11.57;;;8.77;;
18280;SDS011;9266;51.132;17.062;2022-12-07T18:26:46;12.47;;;8.60;;
18280;SDS011;9266;51.132;17.062;2022-12-07T18:29:16;13.93;;;10.80;;
18280;SDS011;9266;51.132;17.062;2022-12-07T18:31:44;14.60;;;9.43;;
18280;SDS011;9266;51.132;17.062;2022-12-07T18:34:12;13.03;;;9.07;;
18280;SDS011;9266;51.132;17.062;2022-12-07T18:36:41;14.53;;;9.07;;
18280;SDS011;9266;51.132;17.062;2022-12-07T18:39:10;14.93;;;8.40;;
18280;SDS011;9266;51.132;17.062;2022-12-07T18:41:38;16.00;;;9.67;;
18280;SDS011;9266;51.132;17.062;2022-12-07T18:44:08;17.60;;;9.53;;
18280;SDS011;9266;51.132;17.062;2022-12-07T18:46:39;13.43;;;9.40;;
18280;SDS011;9266;51.132;17.062;2022-12-07T18:49:07;18.80;;;9.70;;
18280;SDS011;9266;51.132;17.062;2022-12-07T18:51:38;14.27;;;9.23;;
